Burdaard, Netherlands
Current Conditions -  °F | °C
As of 5:55 PM on Friday 28 Nov 2014 (Local Time) from EHLW Reporting Station
Haze Haze  
Wind Chill: 30°   Ceiling: 10000
Heat Index: 39°   Visibility: 4mi
Dew Point: 34°   Wind: 16mph
Humidity: 81%   Direction: 110°ESE
Pressure: 29.91"   Gusts: NA
Location:  53.29°N, 5.88°E
Report Text: EHLW 281655Z AUTO 11014KT 7000 BR FEW082 OVC100 04/01 Q1013 WHT
Loading
Personal Weather Stations






























Interactive Weather Map New forecast layout! Learn more

10-Day Weather Forecast

Advertisements
Track Severe Weather on mobile